createdAt,value
2023-02-12T00:01:31.152Z,33.6
2023-02-12T00:06:31.671Z,32.1
2023-02-12T00:11:32.218Z,32.7
2023-02-12T00:16:32.755Z,39.5
2023-02-12T00:21:33.274Z,35.9
2023-02-12T00:26:33.786Z,34.3
2023-02-12T00:31:34.305Z,35.4
2023-02-12T00:36:34.970Z,34.5
2023-02-12T00:41:35.679Z,35.3
2023-02-12T00:46:36.216Z,36.9
2023-02-12T00:51:37.106Z,34.5
2023-02-12T00:56:37.712Z,35
2023-02-12T01:01:38.215Z,35.4
2023-02-12T01:06:38.806Z,34.7
2023-02-12T01:11:39.513Z,38.4
2023-02-12T01:16:40.197Z,36.6
2023-02-12T01:21:41.045Z,39.1
2023-02-12T01:26:41.803Z,39.8
2023-02-12T01:31:42.734Z,38.2
2023-02-12T01:36:43.770Z,36.7
2023-02-12T01:41:44.512Z,35.3
2023-02-12T01:46:45.125Z,37.9
2023-02-12T01:51:45.965Z,38.1
2023-02-12T01:56:46.628Z,37.5
2023-02-12T02:01:47.288Z,44.7
2023-02-12T02:06:48.163Z,38.2
2023-02-12T02:11:48.884Z,43.4
2023-02-12T02:16:49.403Z,40.4
2023-02-12T02:21:49.862Z,39.4
2023-02-12T02:26:50.544Z,39.8
2023-02-12T02:31:51.103Z,47.6
2023-02-12T02:37:00.385Z,47.9
2023-02-12T02:42:01.498Z,43.9
2023-02-12T02:47:02.074Z,44
2023-02-12T02:52:02.576Z,45.9
2023-02-12T02:57:03.452Z,43.7
2023-02-12T03:02:04.048Z,42
2023-02-12T03:07:04.593Z,47.9
2023-02-12T03:12:05.312Z,48.3
2023-02-12T03:17:05.839Z,44.9
2023-02-12T03:22:06.313Z,48.5
2023-02-12T03:27:06.813Z,48.1
2023-02-12T03:32:07.486Z,50.6
2023-02-12T03:37:08.061Z,51.4
2023-02-12T03:42:08.524Z,47.6
2023-02-12T03:47:09.103Z,67.2
2023-02-12T03:52:09.578Z,68.6
2023-02-12T03:57:10.067Z,64.3
2023-02-12T04:02:10.825Z,59.3
2023-02-12T04:07:11.412Z,57.8
2023-02-12T04:12:11.938Z,62.3
2023-02-12T04:17:12.523Z,63.4
2023-02-12T04:22:13.299Z,62.8
2023-02-12T04:27:13.912Z,57.9
2023-02-12T04:32:14.442Z,61.4
2023-02-12T04:37:14.927Z,63.3
2023-02-12T04:42:15.509Z,61.7
2023-02-12T04:47:16.021Z,58.8
2023-02-12T04:52:16.621Z,59
2023-02-12T04:57:17.069Z,58.9
2023-02-12T05:02:17.493Z,63.7
2023-02-12T05:07:18.049Z,56.5
2023-02-12T05:12:18.611Z,63.5
2023-02-12T05:17:19.125Z,61.7
2023-02-12T05:22:19.723Z,63.4
2023-02-12T05:27:20.319Z,76.3
2023-02-12T05:32:20.778Z,65.1
2023-02-12T05:37:21.251Z,67.5
2023-02-12T05:42:21.779Z,70.7
2023-02-12T05:47:22.217Z,74
2023-02-12T05:52:22.668Z,79.1
2023-02-12T05:57:23.232Z,80.9
2023-02-12T06:02:24.201Z,82.4
2023-02-12T06:07:24.790Z,93.5
2023-02-12T06:12:25.264Z,89.2
2023-02-12T06:17:25.704Z,88.7
2023-02-12T06:22:26.178Z,85
2023-02-12T06:27:26.744Z,104.6
2023-02-12T06:32:27.267Z,107.2
2023-02-12T06:37:27.757Z,74.6
2023-02-12T06:42:28.229Z,110
2023-02-12T06:47:28.730Z,51.5
2023-02-12T06:52:29.247Z,56.6
2023-02-12T06:57:29.803Z,49.1
2023-02-12T07:02:30.276Z,49.5
2023-02-12T07:07:30.704Z,48.6
2023-02-12T07:12:31.175Z,123.9
2023-02-12T07:17:31.627Z,47.4
2023-02-12T07:22:32.087Z,51.4
2023-02-12T07:27:32.890Z,50.3
2023-02-12T07:32:33.590Z,101.3
2023-02-12T07:37:34.109Z,58
2023-02-12T07:42:34.557Z,87.1
2023-02-12T07:47:35.118Z,70
2023-02-12T07:52:35.761Z,57.6
2023-02-12T07:57:36.349Z,57.9
2023-02-12T08:02:37.146Z,54.4
2023-02-12T08:07:37.593Z,50.7
2023-02-12T08:12:40.861Z,130.1
2023-02-12T08:17:41.348Z,60.4
2023-02-12T08:22:41.949Z,56.8
2023-02-12T08:27:42.873Z,58.9
2023-02-12T08:32:46.368Z,57.7
2023-02-12T08:37:46.917Z,52.2
2023-02-12T08:42:47.901Z,49.2
2023-02-12T08:47:48.500Z,44.2
2023-02-12T08:52:49.419Z,47.4
2023-02-12T08:57:50.115Z,44.7
2023-02-12T09:02:50.515Z,43.8
2023-02-12T09:07:52.041Z,41.8
2023-02-12T09:12:54.244Z,43
2023-02-12T09:17:55.128Z,41.4
2023-02-12T09:22:55.555Z,45.6
2023-02-12T09:27:56.382Z,45.6
2023-02-12T09:32:57.677Z,44.3
2023-02-12T09:37:58.212Z,41
2023-02-12T09:43:01.212Z,38.9
2023-02-12T09:48:02.954Z,37.2
2023-02-12T09:53:04.440Z,38
2023-02-12T09:58:05.557Z,43.1
2023-02-12T10:03:08.793Z,44.6
2023-02-12T10:08:13.133Z,43.4
2023-02-12T10:13:13.951Z,43
2023-02-12T10:18:14.529Z,54.7
2023-02-12T10:23:18.395Z,63.1
2023-02-12T10:28:19.210Z,43.6
2023-02-12T10:33:20.333Z,38.5
2023-02-12T10:38:20.843Z,38
2023-02-12T10:43:21.353Z,41.4
2023-02-12T10:48:23.007Z,84.8
2023-02-12T10:53:26.662Z,195.1
2023-02-12T10:58:27.036Z,365.7
2023-02-12T11:03:29.757Z,393.4
2023-02-12T11:08:30.163Z,303.4
2023-02-12T11:13:30.817Z,386
2023-02-12T11:18:33.660Z,354.6
2023-02-12T11:23:34.006Z,343.6
2023-02-12T11:28:36.442Z,225
2023-02-12T11:33:39.366Z,67.3
2023-02-12T11:38:43.229Z,35.8
2023-02-12T11:43:43.891Z,46.4
2023-02-12T11:48:44.282Z,59.5
2023-02-12T11:53:44.772Z,67.4
2023-02-12T11:58:45.280Z,29.4
2023-02-12T12:03:46.115Z,22.5
2023-02-12T12:08:46.593Z,20.9
2023-02-12T12:13:47.298Z,22.7
2023-02-12T12:18:47.654Z,28.4
2023-02-12T12:23:48.292Z,24.5
2023-02-12T12:28:48.776Z,24
2023-02-12T12:33:49.215Z,23.8
2023-02-12T12:38:49.632Z,22.1
2023-02-12T12:43:50.424Z,22.4
2023-02-12T12:48:51.827Z,18.4
2023-02-12T12:53:54.908Z,17.8
2023-02-12T12:58:56.372Z,13.9
2023-02-12T13:03:58.920Z,15
2023-02-12T13:09:02.226Z,14.3
2023-02-12T13:14:06.079Z,16.4
2023-02-12T13:19:06.882Z,15.4
2023-02-12T13:24:07.372Z,14
2023-02-12T13:29:09.344Z,13.7
2023-02-12T13:34:09.905Z,16
2023-02-12T13:39:10.542Z,15.4
2023-02-12T13:44:11.427Z,18.1
2023-02-12T13:49:12.064Z,20
2023-02-12T13:54:15.269Z,20.5
2023-02-12T13:59:15.731Z,19.2
2023-02-12T14:04:19.653Z,18.1
2023-02-12T14:09:20.639Z,20.5
2023-02-12T14:14:23.342Z,21.1
2023-02-12T14:19:26.391Z,20.5
2023-02-12T14:24:29.447Z,25.3
2023-02-12T14:29:29.901Z,20.6
2023-02-12T14:34:30.575Z,21.6
2023-02-12T14:39:32.323Z,24.7
2023-02-12T14:44:32.846Z,25.3
2023-02-12T14:49:33.481Z,22.9
2023-02-12T14:54:34.597Z,25.9
2023-02-12T14:59:35.592Z,20.3
2023-02-12T15:04:37.836Z,18.3
2023-02-12T15:09:40.861Z,24.8
2023-02-12T15:14:41.534Z,27.2
2023-02-12T15:19:44.390Z,29.1
2023-02-12T15:24:45.324Z,27.8
2023-02-12T15:29:46.671Z,32
2023-02-12T15:34:47.887Z,28.9
2023-02-12T15:39:48.762Z,30.4
2023-02-12T15:44:49.162Z,31.1
2023-02-12T15:49:49.751Z,29.8
2023-02-12T15:54:53.166Z,34.7
2023-02-12T15:59:56.246Z,36.5
2023-02-12T16:04:57.082Z,37.9
2023-02-12T16:09:59.824Z,43.8
2023-02-12T16:15:00.355Z,43.4
2023-02-12T16:20:00.922Z,44.4
2023-02-12T16:25:01.448Z,47.9
2023-02-12T16:30:02.169Z,43.7
2023-02-12T16:35:03.102Z,50.5
2023-02-12T16:40:03.704Z,50.8
2023-02-12T16:45:04.425Z,53.4
2023-02-12T16:50:04.886Z,61.1
2023-02-12T16:55:05.339Z,85.6
2023-02-12T17:00:05.878Z,78.8
2023-02-12T17:05:06.476Z,78
2023-02-12T17:10:07.022Z,73.6
2023-02-12T17:20:08.436Z,68.1
2023-02-12T17:25:09.537Z,61.3
2023-02-12T17:30:10.581Z,47.9
2023-02-12T17:35:11.332Z,48.7
2023-02-12T17:40:11.893Z,41.3
2023-02-12T17:45:12.328Z,45.1
2023-02-12T17:50:12.778Z,46.2
2023-02-12T17:55:13.315Z,43.5
2023-02-12T18:00:13.808Z,42.8
2023-02-12T18:05:14.318Z,41.3
2023-02-12T18:10:15.145Z,42
2023-02-12T18:15:15.786Z,42.5
2023-02-12T18:20:16.375Z,46.8
2023-02-12T18:25:20.985Z,45.3
2023-02-12T18:30:22.504Z,46.1
2023-02-12T18:35:23.984Z,46.3
2023-02-12T18:40:24.531Z,45
2023-02-12T18:45:24.992Z,48
2023-02-12T18:50:25.426Z,49.1
2023-02-12T18:55:26.779Z,48.4
2023-02-12T19:00:30.346Z,52
2023-02-12T19:05:30.832Z,53.3
2023-02-12T19:10:31.243Z,59.3
2023-02-12T19:15:31.910Z,55.3
2023-02-12T19:20:32.665Z,55.3
2023-02-12T19:25:33.491Z,55.9
2023-02-12T19:30:36.465Z,62
2023-02-12T19:35:36.914Z,64.7
2023-02-12T19:40:37.492Z,67.3
2023-02-12T19:45:38.247Z,69.5
2023-02-12T19:50:38.788Z,106.7
2023-02-12T19:55:39.377Z,74.7
2023-02-12T20:00:39.890Z,74.1
2023-02-12T20:05:40.524Z,79.2
2023-02-12T20:10:41.088Z,77.5
2023-02-12T20:15:41.639Z,72.6
2023-02-12T20:20:42.345Z,79.1
2023-02-12T20:25:43.028Z,84
2023-02-12T20:30:43.962Z,87.7
2023-02-12T20:35:44.855Z,91.5
2023-02-12T20:40:48.197Z,90.5
2023-02-12T20:45:50.944Z,88.7
2023-02-12T20:50:51.674Z,82.6
2023-02-12T20:55:52.362Z,78.8
2023-02-12T21:00:53.502Z,81.2
2023-02-12T21:05:54.097Z,83.3
2023-02-12T21:10:55.442Z,87.4
2023-02-12T21:15:56.469Z,89.9
2023-02-12T21:20:57.803Z,87.1
2023-02-12T21:25:58.598Z,69.5
2023-02-12T21:30:59.714Z,62.4
2023-02-12T21:36:00.655Z,59.6
2023-02-12T21:41:01.390Z,60.2
2023-02-12T21:46:01.981Z,49.9
2023-02-12T21:51:02.758Z,54.3
2023-02-12T21:56:03.462Z,52.7
2023-02-12T22:01:03.956Z,48
2023-02-12T22:06:04.822Z,51.8
2023-02-12T22:11:05.360Z,47.8
2023-02-12T22:16:05.874Z,47.6
2023-02-12T22:21:06.902Z,46.4
2023-02-12T22:26:10.508Z,43.9
2023-02-12T22:31:11.228Z,42.3
2023-02-12T22:36:11.666Z,45.1
2023-02-12T22:41:12.204Z,41.6
2023-02-12T22:46:12.867Z,38.3
2023-02-12T22:51:13.468Z,38.3
2023-02-12T22:56:14.008Z,36.8
2023-02-12T23:01:14.501Z,37
2023-02-12T23:06:15.020Z,39
2023-02-12T23:11:15.480Z,36.7
2023-02-12T23:16:15.995Z,35.7
2023-02-12T23:21:16.486Z,33.6
2023-02-12T23:26:16.910Z,28.1
2023-02-12T23:31:18.106Z,29.5
2023-02-12T23:36:18.760Z,31
2023-02-12T23:41:19.228Z,30.3
2023-02-12T23:46:19.724Z,39.1
2023-02-12T23:51:20.309Z,41
2023-02-12T23:56:20.817Z,39.5
